Eckville, Pennsylvania
Current Conditions -  °F | °C
As of 1:54 AM on Saturday 20 Dec 2014 (Local Time) from KRDG Reporting Station
Overcast Overcast  
Wind Chill: 24°   Ceiling: 3200
Heat Index: 33°   Visibility: 10mi
Dew Point: 20°   Wind: 12mph
Humidity: 59%   Direction: 340°NNW
Pressure: 30.19"   Gusts: NA
Location:  40.6329°N, 75.8768°W
Report Text: KRDG 200654Z AUTO 34010KT 10SM OVC032 01/M07 A3019 RMK AO2 SLP231 T00061067
Loading
Personal Weather Stations






























Interactive Weather Map New forecast layout! Learn more

10-Day Weather Forecast

Advertisements
Track Severe Weather on mobile